createdAt,value
2019-02-26T00:00:24.398Z,13.35
2019-02-26T00:03:02.164Z,10.88
2019-02-26T00:05:33.178Z,9.60
2019-02-26T00:08:06.055Z,9.18
2019-02-26T00:10:39.169Z,8.08
2019-02-26T00:13:12.060Z,10.32
2019-02-26T00:15:48.315Z,9.23
2019-02-26T00:18:21.488Z,13.93
2019-02-26T00:20:56.668Z,7.97
2019-02-26T00:23:30.056Z,8.45
2019-02-26T00:26:04.175Z,9.58
2019-02-26T00:28:38.948Z,7.55
2019-02-26T00:31:10.275Z,8.28
2019-02-26T00:33:43.394Z,8.60
2019-02-26T00:36:16.375Z,9.50
2019-02-26T00:38:49.436Z,11.00
2019-02-26T00:41:24.446Z,14.35
2019-02-26T00:43:57.730Z,9.78
2019-02-26T00:46:32.435Z,8.03
2019-02-26T00:49:05.874Z,9.08
2019-02-26T00:51:39.865Z,8.08
2019-02-26T00:54:12.797Z,9.08
2019-02-26T00:56:45.175Z,8.03
2019-02-26T00:59:16.475Z,10.68
2019-02-26T01:01:50.319Z,8.33
2019-02-26T01:04:23.978Z,9.83
2019-02-26T01:06:59.002Z,8.30
2019-02-26T01:09:32.259Z,7.62
2019-02-26T01:12:07.347Z,8.80
2019-02-26T01:14:41.379Z,11.95
2019-02-26T01:17:14.838Z,9.43
2019-02-26T01:19:48.555Z,8.95
2019-02-26T01:22:20.802Z,8.00
2019-02-26T01:24:54.271Z,8.85
2019-02-26T01:27:27.396Z,6.92
2019-02-26T01:30:03.220Z,7.95
2019-02-26T01:32:34.815Z,10.25
2019-02-26T01:35:08.891Z,15.90
2019-02-26T01:37:42.475Z,8.28
2019-02-26T01:40:20.563Z,9.23
2019-02-26T01:42:52.378Z,8.60
2019-02-26T01:45:24.985Z,8.35
2019-02-26T01:47:57.357Z,7.87
2019-02-26T01:50:30.896Z,8.30
2019-02-26T01:53:03.715Z,9.88
2019-02-26T01:55:36.437Z,8.70
2019-02-26T01:58:09.795Z,9.35
2019-02-26T02:00:42.116Z,10.25
2019-02-26T02:03:14.455Z,9.65
2019-02-26T02:05:48.053Z,7.97
2019-02-26T02:08:23.007Z,7.87
2019-02-26T02:10:57.142Z,7.80
2019-02-26T02:13:30.655Z,6.95
2019-02-26T02:16:04.903Z,7.25
2019-02-26T02:18:38.595Z,8.25
2019-02-26T02:21:11.416Z,8.33
2019-02-26T02:23:44.192Z,8.30
2019-02-26T02:26:17.635Z,9.18
2019-02-26T02:28:50.258Z,7.25
2019-02-26T02:31:24.431Z,9.10
2019-02-26T02:33:57.157Z,8.25
2019-02-26T02:36:30.457Z,7.40
2019-02-26T02:39:03.577Z,7.50
2019-02-26T02:41:35.974Z,7.67
2019-02-26T02:44:12.343Z,8.20
2019-02-26T02:46:44.375Z,8.15
2019-02-26T02:49:17.962Z,8.10
2019-02-26T02:51:50.197Z,9.75
2019-02-26T02:54:24.061Z,7.62
2019-02-26T02:56:59.956Z,8.78
2019-02-26T02:59:33.968Z,8.45
2019-02-26T03:02:05.115Z,10.40
2019-02-26T03:04:37.816Z,7.47
2019-02-26T03:07:11.138Z,7.87
2019-02-26T03:09:45.790Z,7.92
2019-02-26T03:12:19.376Z,7.95
2019-02-26T03:14:51.716Z,10.93
2019-02-26T03:17:23.654Z,9.15
2019-02-26T03:19:58.443Z,12.43
2019-02-26T03:22:30.576Z,11.40
2019-02-26T03:25:03.516Z,12.80
2019-02-26T03:27:37.425Z,12.23
2019-02-26T03:30:20.709Z,10.90
2019-02-26T03:32:50.528Z,10.25
2019-02-26T03:35:23.401Z,11.03
2019-02-26T03:37:55.619Z,11.40
2019-02-26T03:40:29.962Z,10.10
2019-02-26T03:43:01.999Z,9.90
2019-02-26T03:45:35.175Z,13.50
2019-02-26T03:48:07.815Z,14.83
2019-02-26T03:50:44.064Z,12.93
2019-02-26T03:53:14.657Z,13.78
2019-02-26T03:55:47.254Z,16.05
2019-02-26T03:58:19.055Z,16.02
2019-02-26T04:00:52.135Z,17.50
2019-02-26T04:03:24.456Z,16.25
2019-02-26T04:05:57.893Z,14.93
2019-02-26T04:08:31.036Z,14.40
2019-02-26T04:11:02.676Z,16.00
2019-02-26T04:13:35.055Z,13.68
2019-02-26T04:16:07.796Z,11.78
2019-02-26T04:18:40.935Z,11.90
2019-02-26T04:21:15.747Z,11.40
2019-02-26T04:23:48.656Z,11.25
2019-02-26T04:26:29.035Z,11.38
2019-02-26T04:29:26.317Z,13.65
2019-02-26T04:32:37.797Z,12.53
2019-02-26T04:35:18.694Z,11.85
2019-02-26T04:38:14.700Z,11.40
2019-02-26T04:41:00.524Z,15.20
2019-02-26T04:44:11.555Z,8.78
2019-02-26T04:47:12.435Z,9.95
2019-02-26T04:49:44.935Z,9.10
2019-02-26T04:52:17.763Z,8.63
2019-02-26T04:54:49.894Z,9.60
2019-02-26T04:57:22.275Z,9.30
2019-02-26T04:59:55.660Z,8.30
2019-02-26T05:02:29.476Z,7.70
2019-02-26T05:05:03.275Z,7.72
2019-02-26T05:07:38.440Z,7.30
2019-02-26T05:10:11.236Z,10.00
2019-02-26T05:12:42.707Z,8.58
2019-02-26T05:15:19.817Z,10.40
2019-02-26T05:17:49.486Z,11.00
2019-02-26T05:20:22.088Z,8.13
2019-02-26T05:23:00.038Z,8.18
2019-02-26T05:25:34.265Z,13.83
2019-02-26T05:28:06.562Z,11.45
2019-02-26T05:30:40.403Z,12.75
2019-02-26T05:33:14.117Z,14.98
2019-02-26T05:35:48.876Z,12.60
2019-02-26T05:38:21.309Z,9.38
2019-02-26T05:40:55.839Z,12.85
2019-02-26T05:43:30.664Z,13.40
2019-02-26T05:46:03.980Z,11.38
2019-02-26T05:48:37.226Z,10.82
2019-02-26T05:51:11.428Z,8.85
2019-02-26T05:53:44.110Z,9.03
2019-02-26T05:56:20.169Z,9.18
2019-02-26T05:58:51.148Z,11.20
2019-02-26T06:01:25.104Z,8.35
2019-02-26T06:03:58.690Z,8.93
2019-02-26T06:06:31.668Z,9.30
2019-02-26T06:09:07.469Z,8.78
2019-02-26T06:11:41.819Z,12.85
2019-02-26T06:14:13.308Z,9.13
2019-02-26T06:16:48.179Z,10.43
2019-02-26T06:19:20.928Z,9.08
2019-02-26T06:21:54.826Z,12.53
2019-02-26T06:24:29.801Z,10.60
2019-02-26T06:27:02.427Z,12.13
2019-02-26T06:29:37.383Z,10.00
2019-02-26T06:32:17.448Z,10.75
2019-02-26T06:34:50.508Z,12.35
2019-02-26T06:37:23.905Z,13.72
2019-02-26T06:39:57.904Z,10.55
2019-02-26T06:42:31.571Z,10.08
2019-02-26T06:45:05.887Z,12.33
2019-02-26T06:47:37.248Z,13.98
2019-02-26T06:50:11.093Z,14.07
2019-02-26T06:52:46.893Z,10.38
2019-02-26T06:55:18.707Z,15.88
2019-02-26T06:57:52.813Z,16.27
2019-02-26T07:00:27.523Z,16.90
2019-02-26T07:03:02.743Z,13.15
2019-02-26T07:05:35.989Z,13.50
2019-02-26T07:08:08.113Z,15.43
2019-02-26T07:10:40.928Z,15.68
2019-02-26T07:13:14.449Z,11.48
2019-02-26T07:15:47.390Z,17.35
2019-02-26T07:18:19.717Z,17.95
2019-02-26T07:20:54.653Z,18.65
2019-02-26T07:23:29.219Z,16.23
2019-02-26T07:26:00.508Z,14.93
2019-02-26T07:28:33.588Z,13.95
2019-02-26T07:31:08.103Z,13.55
2019-02-26T07:33:41.168Z,15.58
2019-02-26T07:36:16.063Z,12.60
2019-02-26T07:38:51.356Z,14.47
2019-02-26T07:41:23.161Z,12.50
2019-02-26T07:43:56.907Z,22.07
2019-02-26T07:46:30.588Z,17.10
2019-02-26T07:49:04.876Z,19.00
2019-02-26T07:51:38.564Z,14.93
2019-02-26T07:54:12.128Z,14.35
2019-02-26T07:56:45.368Z,13.83
2019-02-26T07:59:16.771Z,17.98
2019-02-26T08:01:49.755Z,15.15
2019-02-26T08:04:22.329Z,17.52
2019-02-26T08:06:56.848Z,14.28
2019-02-26T08:09:28.628Z,18.35
2019-02-26T08:12:02.071Z,14.03
2019-02-26T08:14:34.128Z,18.15
2019-02-26T08:17:06.326Z,21.73
2019-02-26T08:19:39.847Z,14.55
2019-02-26T08:22:13.564Z,17.80
2019-02-26T08:24:48.612Z,17.70
2019-02-26T08:27:20.989Z,26.05
2019-02-26T08:29:54.708Z,15.70
2019-02-26T08:32:28.626Z,17.55
2019-02-26T08:35:00.823Z,19.37
2019-02-26T08:37:33.708Z,15.20
2019-02-26T08:40:06.968Z,16.37
2019-02-26T08:42:39.008Z,21.87
2019-02-26T08:45:15.072Z,22.10
2019-02-26T08:47:48.787Z,13.08
2019-02-26T08:50:20.892Z,13.90
2019-02-26T08:52:55.402Z,12.45
2019-02-26T08:55:26.219Z,13.28
2019-02-26T08:57:58.955Z,17.70
2019-02-26T09:00:34.206Z,19.65
2019-02-26T09:03:08.280Z,13.80
2019-02-26T09:05:40.413Z,13.20
2019-02-26T09:08:14.007Z,13.80
2019-02-26T09:10:48.639Z,16.82
2019-02-26T09:13:21.002Z,13.32
2019-02-26T09:15:55.554Z,18.40
2019-02-26T09:18:28.198Z,24.47
2019-02-26T09:21:02.602Z,20.23
2019-02-26T09:23:35.123Z,42.17
2019-02-26T09:26:07.685Z,21.50
2019-02-26T09:28:39.843Z,20.97
2019-02-26T09:31:14.201Z,21.68
2019-02-26T09:33:47.202Z,15.68
2019-02-26T09:36:23.161Z,18.85
2019-02-26T09:38:54.682Z,19.23
2019-02-26T09:41:27.342Z,22.48
2019-02-26T09:43:59.331Z,16.93
2019-02-26T09:46:35.881Z,22.65
2019-02-26T09:49:11.860Z,58.40
2019-02-26T09:51:41.968Z,23.32
2019-02-26T09:54:15.283Z,21.57
2019-02-26T09:56:47.973Z,22.98
2019-02-26T09:59:21.216Z,20.50
2019-02-26T10:01:56.424Z,33.02
2019-02-26T10:04:28.990Z,22.70
2019-02-26T10:07:02.279Z,19.23
2019-02-26T10:09:35.256Z,30.92
2019-02-26T10:12:12.285Z,17.02
2019-02-26T10:14:44.352Z,18.90
2019-02-26T10:17:17.398Z,22.30
2019-02-26T10:19:49.754Z,17.87
2019-02-26T10:22:22.611Z,16.97
2019-02-26T10:24:55.312Z,20.02
2019-02-26T10:27:31.042Z,17.85
2019-02-26T10:30:02.790Z,18.23
2019-02-26T10:32:36.162Z,26.15
2019-02-26T10:35:14.041Z,18.85
2019-02-26T10:37:49.302Z,21.85
2019-02-26T10:40:22.262Z,18.90
2019-02-26T10:42:55.283Z,22.02
2019-02-26T10:45:29.044Z,19.17
2019-02-26T10:48:02.447Z,22.42
2019-02-26T10:50:37.256Z,21.80
2019-02-26T10:53:13.563Z,22.55
2019-02-26T10:55:44.956Z,24.87
2019-02-26T10:58:18.033Z,26.12
2019-02-26T11:00:55.705Z,27.10
2019-02-26T11:03:29.869Z,41.63
2019-02-26T11:06:04.615Z,26.52
2019-02-26T11:08:36.670Z,21.73
2019-02-26T11:11:13.012Z,18.75
2019-02-26T11:13:48.208Z,21.23
2019-02-26T11:16:24.831Z,17.80
2019-02-26T11:18:51.303Z,15.98
2019-02-26T11:21:24.381Z,22.25
2019-02-26T11:23:58.499Z,21.85
2019-02-26T11:26:32.459Z,17.05
2019-02-26T11:29:05.426Z,21.25
2019-02-26T11:31:39.752Z,17.77
2019-02-26T11:34:13.457Z,21.05
2019-02-26T11:36:46.796Z,27.82
2019-02-26T11:39:19.842Z,23.92
2019-02-26T11:41:53.765Z,19.05
2019-02-26T11:44:27.708Z,21.85
2019-02-26T11:47:01.145Z,17.40
2019-02-26T11:49:36.951Z,17.20
2019-02-26T11:52:12.954Z,17.30
2019-02-26T11:54:46.035Z,17.75
2019-02-26T11:57:18.362Z,15.08
2019-02-26T11:59:50.942Z,14.75
2019-02-26T12:02:27.166Z,18.40
2019-02-26T12:04:57.549Z,19.77
2019-02-26T12:07:32.255Z,17.52
2019-02-26T12:10:09.511Z,17.48
2019-02-26T12:12:39.934Z,18.55
2019-02-26T12:15:15.266Z,17.90
2019-02-26T12:17:51.885Z,16.23
2019-02-26T12:20:24.973Z,14.80
2019-02-26T12:22:57.694Z,28.98
2019-02-26T12:25:30.055Z,16.17
2019-02-26T12:28:03.695Z,15.03
2019-02-26T12:30:39.807Z,24.75
2019-02-26T12:33:14.770Z,13.18
2019-02-26T12:35:47.553Z,18.07
2019-02-26T12:38:21.528Z,18.75
2019-02-26T12:40:54.434Z,19.02
2019-02-26T12:43:27.775Z,17.70
2019-02-26T12:46:01.487Z,23.10
2019-02-26T12:48:35.175Z,18.65
2019-02-26T12:51:08.785Z,22.40
2019-02-26T12:53:49.606Z,18.17
2019-02-26T12:56:20.707Z,29.20
2019-02-26T12:58:54.578Z,19.37
2019-02-26T13:01:26.226Z,19.27
2019-02-26T13:03:58.486Z,19.92
2019-02-26T13:06:29.343Z,20.80
2019-02-26T13:09:01.422Z,19.95
2019-02-26T13:11:34.349Z,18.62
2019-02-26T13:14:07.681Z,19.98
2019-02-26T13:16:42.029Z,21.45
2019-02-26T13:19:18.343Z,18.77
2019-02-26T13:21:48.475Z,21.10
2019-02-26T13:24:22.417Z,22.48
2019-02-26T13:26:55.665Z,22.77
2019-02-26T13:29:28.292Z,18.67
2019-02-26T13:32:01.157Z,21.82
2019-02-26T13:34:34.535Z,19.27
2019-02-26T13:37:06.235Z,22.80
2019-02-26T13:39:41.535Z,19.50
2019-02-26T13:42:14.227Z,21.12
2019-02-26T13:44:47.340Z,17.45
2019-02-26T13:47:19.280Z,19.70
2019-02-26T13:49:52.097Z,21.62
2019-02-26T13:52:25.305Z,19.02
2019-02-26T13:54:57.880Z,19.82
2019-02-26T13:57:30.347Z,19.12
2019-02-26T14:00:02.952Z,18.73
2019-02-26T14:02:36.693Z,18.73
2019-02-26T14:05:10.267Z,22.60
2019-02-26T14:07:42.308Z,22.60
2019-02-26T14:10:16.167Z,26.75
2019-02-26T14:12:49.007Z,22.75
2019-02-26T14:15:23.688Z,23.50
2019-02-26T14:17:57.388Z,18.95
2019-02-26T14:20:29.827Z,24.32
2019-02-26T14:23:01.751Z,25.40
2019-02-26T14:25:32.447Z,22.17
2019-02-26T14:28:04.968Z,31.37
2019-02-26T14:30:37.407Z,28.07
2019-02-26T14:33:09.408Z,25.48
2019-02-26T14:35:41.827Z,19.32
2019-02-26T14:38:14.747Z,21.82
2019-02-26T14:40:48.108Z,20.40
2019-02-26T14:43:19.927Z,23.73
2019-02-26T14:45:52.547Z,36.05
2019-02-26T14:48:24.987Z,32.35
2019-02-26T14:50:57.567Z,19.85
2019-02-26T14:53:30.478Z,20.25
2019-02-26T14:56:02.599Z,25.43
2019-02-26T14:58:35.592Z,22.77
2019-02-26T15:01:09.379Z,23.12
2019-02-26T15:03:41.598Z,22.58
2019-02-26T15:06:14.137Z,23.35
2019-02-26T15:08:46.692Z,25.90
2019-02-26T15:11:18.971Z,26.35
2019-02-26T15:13:51.391Z,32.58
2019-02-26T15:16:23.452Z,29.65
2019-02-26T15:18:55.730Z,25.82
2019-02-26T15:21:27.784Z,27.95
2019-02-26T15:24:00.205Z,34.35
2019-02-26T15:26:32.646Z,27.35
2019-02-26T15:29:04.314Z,29.45
2019-02-26T15:31:37.095Z,36.58
2019-02-26T15:34:08.959Z,26.82
2019-02-26T15:36:41.195Z,18.73
2019-02-26T15:39:14.039Z,14.68
2019-02-26T15:41:48.205Z,18.55
2019-02-26T15:44:21.099Z,26.42
2019-02-26T15:46:53.621Z,23.15
2019-02-26T15:49:26.159Z,29.82
2019-02-26T15:51:58.837Z,23.42
2019-02-26T15:54:31.628Z,17.92
2019-02-26T15:57:04.121Z,20.35
2019-02-26T15:59:36.641Z,24.65
2019-02-26T16:02:09.580Z,26.97
2019-02-26T16:04:41.882Z,22.90
2019-02-26T16:07:14.859Z,19.00
2019-02-26T16:09:47.321Z,17.55
2019-02-26T16:12:20.363Z,16.27
2019-02-26T16:14:53.701Z,21.10
2019-02-26T16:17:26.586Z,19.25
2019-02-26T16:19:58.623Z,17.90
2019-02-26T16:22:31.684Z,17.70
2019-02-26T16:25:07.551Z,17.02
2019-02-26T16:27:38.583Z,19.35
2019-02-26T16:30:21.085Z,9.95
2019-02-26T16:32:53.205Z,19.65
2019-02-26T16:35:26.505Z,13.05
2019-02-26T16:38:00.284Z,18.50
2019-02-26T16:40:32.644Z,9.98
2019-02-26T16:43:05.851Z,8.60
2019-02-26T16:45:39.063Z,11.20
2019-02-26T16:48:11.763Z,12.18
2019-02-26T16:50:45.579Z,14.65
2019-02-26T16:53:18.764Z,12.78
2019-02-26T16:55:51.966Z,24.50
2019-02-26T16:58:25.244Z,14.80
2019-02-26T17:00:58.066Z,16.12
2019-02-26T17:03:31.671Z,19.32
2019-02-26T17:06:05.263Z,16.90
2019-02-26T17:08:37.747Z,12.13
2019-02-26T17:11:13.347Z,16.93
2019-02-26T17:13:44.923Z,14.20
2019-02-26T17:16:17.924Z,15.60
2019-02-26T17:18:50.943Z,18.65
2019-02-26T17:21:23.178Z,16.25
2019-02-26T17:23:55.326Z,15.68
2019-02-26T17:26:27.219Z,20.32
2019-02-26T17:28:59.450Z,15.10
2019-02-26T17:31:31.484Z,17.95
2019-02-26T17:34:03.888Z,20.10
2019-02-26T17:36:39.085Z,19.42
2019-02-26T17:39:12.344Z,30.00
2019-02-26T17:41:46.044Z,35.98
2019-02-26T17:44:19.063Z,15.93
2019-02-26T17:46:49.764Z,18.80
2019-02-26T17:49:22.425Z,20.08
2019-02-26T17:51:55.503Z,14.20
2019-02-26T17:54:27.343Z,14.83
2019-02-26T17:57:00.975Z,22.00
2019-02-26T17:59:34.104Z,21.48
2019-02-26T18:02:06.544Z,19.70
2019-02-26T18:04:39.085Z,11.83
2019-02-26T18:07:11.724Z,20.27
2019-02-26T18:09:44.825Z,18.75
2019-02-26T18:12:18.664Z,23.25
2019-02-26T18:14:52.446Z,21.65
2019-02-26T18:17:25.819Z,16.90
2019-02-26T18:19:58.043Z,16.48
2019-02-26T18:22:30.802Z,18.75
2019-02-26T18:25:03.583Z,18.30
2019-02-26T18:27:36.652Z,13.05
2019-02-26T18:30:10.244Z,33.00
2019-02-26T18:32:49.998Z,21.35
2019-02-26T18:35:16.965Z,25.23
2019-02-26T18:37:50.065Z,28.77
2019-02-26T18:40:22.684Z,24.55
2019-02-26T18:42:55.663Z,24.77
2019-02-26T18:45:29.586Z,22.27
2019-02-26T18:48:02.667Z,17.27
2019-02-26T18:50:34.864Z,15.48
2019-02-26T18:53:07.223Z,31.42
2019-02-26T18:55:40.183Z,13.85
2019-02-26T18:58:13.785Z,20.08
2019-02-26T19:00:47.085Z,24.00
2019-02-26T19:03:19.664Z,15.75
2019-02-26T19:05:54.653Z,13.30
2019-02-26T19:08:25.864Z,14.23
2019-02-26T19:10:57.824Z,22.98
2019-02-26T19:13:30.884Z,26.20
2019-02-26T19:16:03.165Z,16.00
2019-02-26T19:18:38.478Z,17.62
2019-02-26T19:21:12.083Z,18.82
2019-02-26T19:23:45.043Z,18.50
2019-02-26T19:26:17.780Z,16.35
2019-02-26T19:28:49.944Z,14.40
2019-02-26T19:31:23.577Z,13.15
2019-02-26T19:33:56.003Z,18.70
2019-02-26T19:36:29.543Z,14.18
2019-02-26T19:39:01.965Z,15.30
2019-02-26T19:41:34.808Z,18.80
2019-02-26T19:44:07.744Z,16.17
2019-02-26T19:46:41.244Z,17.92
2019-02-26T19:49:13.963Z,9.93
2019-02-26T19:51:46.524Z,12.47
2019-02-26T19:54:20.141Z,16.27
2019-02-26T19:56:56.700Z,12.03
2019-02-26T19:59:27.205Z,12.18
2019-02-26T20:02:00.302Z,12.55
2019-02-26T20:04:33.282Z,16.25
2019-02-26T20:07:05.323Z,15.05
2019-02-26T20:09:38.864Z,18.37
2019-02-26T20:12:12.207Z,14.68
2019-02-26T20:14:48.602Z,13.70
2019-02-26T20:17:18.882Z,12.33
2019-02-26T20:19:52.062Z,11.97
2019-02-26T20:22:25.402Z,14.47
2019-02-26T20:24:58.162Z,13.08
2019-02-26T20:27:33.035Z,10.95
2019-02-26T20:30:05.742Z,14.68
2019-02-26T20:32:38.346Z,13.60
2019-02-26T20:35:13.262Z,12.90
2019-02-26T20:37:46.322Z,11.85
2019-02-26T20:40:21.103Z,14.13
2019-02-26T20:42:54.063Z,12.85
2019-02-26T20:45:27.482Z,9.30
2019-02-26T20:48:03.908Z,13.43
2019-02-26T20:50:35.982Z,18.23
2019-02-26T20:53:09.104Z,10.78
2019-02-26T20:55:42.262Z,11.70
2019-02-26T20:58:15.862Z,9.18
2019-02-26T21:00:49.483Z,10.20
2019-02-26T21:03:21.963Z,18.32
2019-02-26T21:05:54.863Z,17.70
2019-02-26T21:08:30.758Z,13.10
2019-02-26T21:11:01.893Z,11.50
2019-02-26T21:13:35.503Z,14.55
2019-02-26T21:16:09.003Z,15.72
2019-02-26T21:18:42.857Z,13.78
2019-02-26T21:21:15.957Z,14.87
2019-02-26T21:23:48.256Z,14.70
2019-02-26T21:26:21.198Z,15.50
2019-02-26T21:28:54.078Z,13.48
2019-02-26T21:31:27.736Z,12.98
2019-02-26T21:34:03.651Z,12.60
2019-02-26T21:36:34.557Z,9.90
2019-02-26T21:39:10.846Z,13.88
2019-02-26T21:41:42.695Z,11.38
2019-02-26T21:44:15.297Z,16.65
2019-02-26T21:46:48.637Z,10.78
2019-02-26T21:49:21.802Z,11.35
2019-02-26T21:51:55.203Z,12.95
2019-02-26T21:54:28.057Z,12.65
2019-02-26T21:57:00.676Z,16.90
2019-02-26T21:59:34.099Z,18.20
2019-02-26T22:02:07.435Z,13.35
2019-02-26T22:04:40.497Z,11.78
2019-02-26T22:07:12.358Z,13.43
2019-02-26T22:09:46.400Z,9.98
2019-02-26T22:12:21.845Z,10.15
2019-02-26T22:14:54.137Z,10.10
2019-02-26T22:17:26.657Z,9.95
2019-02-26T22:19:59.317Z,9.33
2019-02-26T22:22:31.333Z,9.95
2019-02-26T22:25:09.602Z,11.22
2019-02-26T22:27:39.217Z,9.03
2019-02-26T22:30:14.101Z,8.60
2019-02-26T22:32:47.837Z,13.65
2019-02-26T22:35:20.458Z,8.98
2019-02-26T22:37:53.275Z,9.33
2019-02-26T22:40:28.906Z,9.43
2019-02-26T22:42:59.676Z,8.05
2019-02-26T22:45:32.796Z,11.15
2019-02-26T22:48:05.621Z,8.65
2019-02-26T22:50:38.874Z,8.15
2019-02-26T22:53:12.274Z,7.92
2019-02-26T22:55:44.517Z,9.45
2019-02-26T22:58:17.256Z,8.00
2019-02-26T23:01:19.975Z,7.42
2019-02-26T23:03:52.635Z,8.38
2019-02-26T23:06:25.234Z,8.50
2019-02-26T23:08:58.436Z,8.20
2019-02-26T23:11:32.489Z,7.90
2019-02-26T23:14:06.977Z,7.37
2019-02-26T23:16:40.015Z,10.70
2019-02-26T23:19:13.578Z,8.03
2019-02-26T23:21:49.795Z,9.68
2019-02-26T23:24:20.935Z,8.88
2019-02-26T23:26:54.376Z,9.58
2019-02-26T23:29:27.969Z,10.23
2019-02-26T23:32:03.753Z,9.85
2019-02-26T23:34:35.497Z,8.68
2019-02-26T23:37:08.136Z,8.58
2019-02-26T23:39:40.955Z,8.50
2019-02-26T23:42:13.675Z,8.60
2019-02-26T23:44:50.882Z,7.42
2019-02-26T23:47:22.330Z,9.20
2019-02-26T23:49:56.098Z,8.33
2019-02-26T23:52:28.400Z,8.33
2019-02-26T23:55:02.517Z,8.35
2019-02-26T23:57:35.017Z,6.80
